sensor_id;sensor_type;location;lat;lon;timestamp;temperature;humidity
80134;SHT30;69443;51.442;10.564;2023-05-02T00:01:54;15.11;53.08
80134;SHT30;69443;51.442;10.564;2023-05-02T00:04:20;15.10;53.19
80134;SHT30;69443;51.442;10.564;2023-05-02T00:06:46;15.07;53.22
80134;SHT30;69443;51.442;10.564;2023-05-02T00:09:12;15.06;53.23
80134;SHT30;69443;51.442;10.564;2023-05-02T00:11:37;15.02;53.41
80134;SHT30;69443;51.442;10.564;2023-05-02T00:14:03;15.00;53.49
80134;SHT30;69443;51.442;10.564;2023-05-02T00:16:28;14.97;53.40
80134;SHT30;69443;51.442;10.564;2023-05-02T00:18:53;14.96;53.45
80134;SHT30;69443;51.442;10.564;2023-05-02T00:21:19;14.93;53.61
80134;SHT30;69443;51.442;10.564;2023-05-02T00:23:44;14.92;53.65
80134;SHT30;69443;51.442;10.564;2023-05-02T00:26:10;14.89;53.59
80134;SHT30;69443;51.442;10.564;2023-05-02T00:28:35;14.88;53.58
80134;SHT30;69443;51.442;10.564;2023-05-02T00:31:01;14.85;53.70
80134;SHT30;69443;51.442;10.564;2023-05-02T00:33:26;14.83;53.72
80134;SHT30;69443;51.442;10.564;2023-05-02T00:35:51;14.79;53.82
80134;SHT30;69443;51.442;10.564;2023-05-02T00:38:17;14.79;53.85
80134;SHT30;69443;51.442;10.564;2023-05-02T00:40:43;14.78;54.07
80134;SHT30;69443;51.442;10.564;2023-05-02T00:43:12;14.76;54.06
80134;SHT30;69443;51.442;10.564;2023-05-02T00:45:38;14.72;54.18
80134;SHT30;69443;51.442;10.564;2023-05-02T00:48:08;14.73;54.20
80134;SHT30;69443;51.442;10.564;2023-05-02T00:50:38;14.72;54.43
80134;SHT30;69443;51.442;10.564;2023-05-02T00:53:05;14.68;54.44
80134;SHT30;69443;51.442;10.564;2023-05-02T00:55:31;14.68;54.38
80134;SHT30;69443;51.442;10.564;2023-05-02T00:57:59;14.68;54.58
80134;SHT30;69443;51.442;10.564;2023-05-02T01:00:30;14.64;54.59
80134;SHT30;69443;51.442;10.564;2023-05-02T01:03:16;14.61;54.56
80134;SHT30;69443;51.442;10.564;2023-05-02T01:06:05;14.62;54.74
80134;SHT30;69443;51.442;10.564;2023-05-02T01:08:41;14.61;54.79
80134;SHT30;69443;51.442;10.564;2023-05-02T01:11:18;14.60;55.00
80134;SHT30;69443;51.442;10.564;2023-05-02T01:13:45;14.57;54.94
80134;SHT30;69443;51.442;10.564;2023-05-02T01:16:13;14.57;54.88
80134;SHT30;69443;51.442;10.564;2023-05-02T01:18:41;14.52;54.88
80134;SHT30;69443;51.442;10.564;2023-05-02T01:21:09;14.51;54.95
80134;SHT30;69443;51.442;10.564;2023-05-02T01:29:08;14.49;54.99
80134;SHT30;69443;51.442;10.564;2023-05-02T01:31:38;14.48;54.99
80134;SHT30;69443;51.442;10.564;2023-05-02T01:34:06;14.46;55.03
80134;SHT30;69443;51.442;10.564;2023-05-02T01:36:34;14.45;55.08
80134;SHT30;69443;51.442;10.564;2023-05-02T01:39:02;14.45;55.18
80134;SHT30;69443;51.442;10.564;2023-05-02T01:41:30;14.42;55.14
80134;SHT30;69443;51.442;10.564;2023-05-02T01:43:58;14.41;55.22
80134;SHT30;69443;51.442;10.564;2023-05-02T01:46:30;14.38;55.32
80134;SHT30;69443;51.442;10.564;2023-05-02T01:48:58;14.38;55.37
80134;SHT30;69443;51.442;10.564;2023-05-02T01:51:27;14.37;55.50
80134;SHT30;69443;51.442;10.564;2023-05-02T01:53:57;14.34;55.48
80134;SHT30;69443;51.442;10.564;2023-05-02T01:56:24;14.35;55.45
80134;SHT30;69443;51.442;10.564;2023-05-02T01:58:50;14.30;55.65
80134;SHT30;69443;51.442;10.564;2023-05-02T02:01:18;14.30;55.67
80134;SHT30;69443;51.442;10.564;2023-05-02T02:03:45;14.28;55.74
80134;SHT30;69443;51.442;10.564;2023-05-02T02:06:12;14.27;55.83
80134;SHT30;69443;51.442;10.564;2023-05-02T02:08:38;14.27;55.90
80134;SHT30;69443;51.442;10.564;2023-05-02T02:11:08;14.24;56.09
80134;SHT30;69443;51.442;10.564;2023-05-02T02:13:38;14.26;56.00
80134;SHT30;69443;51.442;10.564;2023-05-02T02:16:06;14.23;55.99
80134;SHT30;69443;51.442;10.564;2023-05-02T02:18:36;14.20;56.09
80134;SHT30;69443;51.442;10.564;2023-05-02T02:21:05;14.18;56.12
80134;SHT30;69443;51.442;10.564;2023-05-02T02:23:32;14.17;56.09
80134;SHT30;69443;51.442;10.564;2023-05-02T02:26:01;14.17;56.08
80134;SHT30;69443;51.442;10.564;2023-05-02T02:28:27;14.17;56.19
80134;SHT30;69443;51.442;10.564;2023-05-02T02:30:52;14.16;56.31
80134;SHT30;69443;51.442;10.564;2023-05-02T02:33:18;14.14;56.33
80134;SHT30;69443;51.442;10.564;2023-05-02T02:35:49;14.12;56.42
80134;SHT30;69443;51.442;10.564;2023-05-02T02:41:13;14.09;56.55
80134;SHT30;69443;51.442;10.564;2023-05-02T02:43:57;14.06;56.45
80134;SHT30;69443;51.442;10.564;2023-05-02T02:50:05;14.00;56.73
80134;SHT30;69443;51.442;10.564;2023-05-02T02:57:59;13.95;56.63
80134;SHT30;69443;51.442;10.564;2023-05-02T03:00:26;13.93;56.63
80134;SHT30;69443;51.442;10.564;2023-05-02T03:02:53;13.89;56.69
80134;SHT30;69443;51.442;10.564;2023-05-02T03:05:20;13.89;56.75
80134;SHT30;69443;51.442;10.564;2023-05-02T03:07:46;13.86;56.70
80134;SHT30;69443;51.442;10.564;2023-05-02T03:10:12;13.83;56.76
80134;SHT30;69443;51.442;10.564;2023-05-02T03:12:37;13.85;56.75
80134;SHT30;69443;51.442;10.564;2023-05-02T03:17:36;13.81;56.75
80134;SHT30;69443;51.442;10.564;2023-05-02T03:20:01;13.78;56.70
80134;SHT30;69443;51.442;10.564;2023-05-02T03:22:28;13.76;56.83
80134;SHT30;69443;51.442;10.564;2023-05-02T03:24:54;13.76;56.89
80134;SHT30;69443;51.442;10.564;2023-05-02T03:27:19;13.76;56.96
80134;SHT30;69443;51.442;10.564;2023-05-02T03:29:45;13.76;56.97
80134;SHT30;69443;51.442;10.564;2023-05-02T03:32:10;13.76;57.08
80134;SHT30;69443;51.442;10.564;2023-05-02T03:34:35;13.72;57.16
80134;SHT30;69443;51.442;10.564;2023-05-02T03:37:01;13.72;57.26
80134;SHT30;69443;51.442;10.564;2023-05-02T03:39:27;13.71;57.30
80134;SHT30;69443;51.442;10.564;2023-05-02T03:41:52;13.69;57.28
80134;SHT30;69443;51.442;10.564;2023-05-02T03:44:17;13.69;57.35
80134;SHT30;69443;51.442;10.564;2023-05-02T03:46:43;13.69;57.43
80134;SHT30;69443;51.442;10.564;2023-05-02T03:49:08;13.68;57.47
80134;SHT30;69443;51.442;10.564;2023-05-02T03:51:34;13.66;57.48
80134;SHT30;69443;51.442;10.564;2023-05-02T03:54:00;13.64;57.52
80134;SHT30;69443;51.442;10.564;2023-05-02T03:56:26;13.65;57.54
80134;SHT30;69443;51.442;10.564;2023-05-02T03:58:52;13.62;57.56
80134;SHT30;69443;51.442;10.564;2023-05-02T04:01:18;13.61;57.54
80134;SHT30;69443;51.442;10.564;2023-05-02T04:03:43;13.59;57.60
80134;SHT30;69443;51.442;10.564;2023-05-02T04:06:09;13.59;57.53
80134;SHT30;69443;51.442;10.564;2023-05-02T04:08:34;13.61;57.72
80134;SHT30;69443;51.442;10.564;2023-05-02T04:11:01;13.55;57.68
80134;SHT30;69443;51.442;10.564;2023-05-02T04:13:26;13.55;57.68
80134;SHT30;69443;51.442;10.564;2023-05-02T04:15:53;13.54;57.70
80134;SHT30;69443;51.442;10.564;2023-05-02T04:18:18;13.54;57.70
80134;SHT30;69443;51.442;10.564;2023-05-02T04:20:44;13.51;57.78
80134;SHT30;69443;51.442;10.564;2023-05-02T04:23:10;13.51;57.81
80134;SHT30;69443;51.442;10.564;2023-05-02T04:25:35;13.51;57.90
80134;SHT30;69443;51.442;10.564;2023-05-02T04:28:01;13.48;57.79
80134;SHT30;69443;51.442;10.564;2023-05-02T04:30:26;13.50;57.84
80134;SHT30;69443;51.442;10.564;2023-05-02T04:32:52;13.48;57.80
80134;SHT30;69443;51.442;10.564;2023-05-02T04:35:17;13.46;57.89
80134;SHT30;69443;51.442;10.564;2023-05-02T04:37:43;13.46;57.87
80134;SHT30;69443;51.442;10.564;2023-05-02T04:40:08;13.46;57.83
80134;SHT30;69443;51.442;10.564;2023-05-02T04:42:34;13.44;57.95
80134;SHT30;69443;51.442;10.564;2023-05-02T04:45:00;13.44;58.06
80134;SHT30;69443;51.442;10.564;2023-05-02T04:47:25;13.46;58.09
80134;SHT30;69443;51.442;10.564;2023-05-02T04:49:50;13.43;58.18
80134;SHT30;69443;51.442;10.564;2023-05-02T04:52:16;13.44;58.17
80134;SHT30;69443;51.442;10.564;2023-05-02T04:54:42;13.43;58.17
80134;SHT30;69443;51.442;10.564;2023-05-02T04:57:08;13.43;58.18
80134;SHT30;69443;51.442;10.564;2023-05-02T04:59:34;13.43;58.15
80134;SHT30;69443;51.442;10.564;2023-05-02T05:01:59;13.47;58.29
80134;SHT30;69443;51.442;10.564;2023-05-02T05:04:25;13.43;58.25
80134;SHT30;69443;51.442;10.564;2023-05-02T05:06:50;13.44;58.31
80134;SHT30;69443;51.442;10.564;2023-05-02T05:09:16;13.41;58.33
80134;SHT30;69443;51.442;10.564;2023-05-02T05:11:42;13.40;58.41
80134;SHT30;69443;51.442;10.564;2023-05-02T05:14:08;13.38;58.37
80134;SHT30;69443;51.442;10.564;2023-05-02T05:16:33;13.40;58.51
80134;SHT30;69443;51.442;10.564;2023-05-02T05:18:59;13.41;58.49
80134;SHT30;69443;51.442;10.564;2023-05-02T05:21:24;13.40;58.55
80134;SHT30;69443;51.442;10.564;2023-05-02T05:23:51;13.41;58.57
80134;SHT30;69443;51.442;10.564;2023-05-02T05:26:17;13.43;58.54
80134;SHT30;69443;51.442;10.564;2023-05-02T05:28:43;13.43;58.54
80134;SHT30;69443;51.442;10.564;2023-05-02T05:31:11;13.47;58.62
80134;SHT30;69443;51.442;10.564;2023-05-02T05:33:37;13.48;58.64
80134;SHT30;69443;51.442;10.564;2023-05-02T05:36:07;13.51;58.77
80134;SHT30;69443;51.442;10.564;2023-05-02T05:38:33;13.54;58.67
80134;SHT30;69443;51.442;10.564;2023-05-02T05:40:58;13.57;58.50
80134;SHT30;69443;51.442;10.564;2023-05-02T05:43:24;13.57;58.55
80134;SHT30;69443;51.442;10.564;2023-05-02T05:45:53;13.61;58.61
80134;SHT30;69443;51.442;10.564;2023-05-02T05:48:19;13.64;58.48
80134;SHT30;69443;51.442;10.564;2023-05-02T05:50:45;13.65;58.44
80134;SHT30;69443;51.442;10.564;2023-05-02T05:53:11;13.68;58.38
80134;SHT30;69443;51.442;10.564;2023-05-02T05:55:36;13.71;58.41
80134;SHT30;69443;51.442;10.564;2023-05-02T05:58:03;13.73;58.49
80134;SHT30;69443;51.442;10.564;2023-05-02T06:00:29;13.75;58.55
80134;SHT30;69443;51.442;10.564;2023-05-02T06:02:54;13.75;58.40
80134;SHT30;69443;51.442;10.564;2023-05-02T06:05:20;13.73;58.48
80134;SHT30;69443;51.442;10.564;2023-05-02T06:07:45;13.75;58.44
80134;SHT30;69443;51.442;10.564;2023-05-02T06:10:10;13.73;58.49
80134;SHT30;69443;51.442;10.564;2023-05-02T06:12:36;13.76;58.54
80134;SHT30;69443;51.442;10.564;2023-05-02T06:15:01;13.79;58.50
80134;SHT30;69443;51.442;10.564;2023-05-02T06:17:27;13.78;58.45
80134;SHT30;69443;51.442;10.564;2023-05-02T06:19:52;13.76;58.58
80134;SHT30;69443;51.442;10.564;2023-05-02T06:22:18;13.79;58.55
80134;SHT30;69443;51.442;10.564;2023-05-02T06:24:43;13.82;58.62
80134;SHT30;69443;51.442;10.564;2023-05-02T06:27:08;13.83;58.65
80134;SHT30;69443;51.442;10.564;2023-05-02T06:29:34;13.86;58.61
80134;SHT30;69443;51.442;10.564;2023-05-02T06:31:59;13.86;58.51
80134;SHT30;69443;51.442;10.564;2023-05-02T06:34:25;13.90;58.56
80134;SHT30;69443;51.442;10.564;2023-05-02T06:36:55;13.93;58.65
80134;SHT30;69443;51.442;10.564;2023-05-02T06:39:21;13.98;58.58
80134;SHT30;69443;51.442;10.564;2023-05-02T06:41:46;14.00;58.53
80134;SHT30;69443;51.442;10.564;2023-05-02T06:44:12;14.05;58.44
80134;SHT30;69443;51.442;10.564;2023-05-02T06:46:38;14.10;58.23
80134;SHT30;69443;51.442;10.564;2023-05-02T06:49:03;14.13;58.09
80134;SHT30;69443;51.442;10.564;2023-05-02T06:51:29;14.18;58.08
80134;SHT30;69443;51.442;10.564;2023-05-02T06:53:55;14.20;57.87
80134;SHT30;69443;51.442;10.564;2023-05-02T06:56:22;14.27;57.83
80134;SHT30;69443;51.442;10.564;2023-05-02T06:58:48;14.33;57.65
80134;SHT30;69443;51.442;10.564;2023-05-02T07:01:13;14.35;57.74
80134;SHT30;69443;51.442;10.564;2023-05-02T07:03:38;14.41;57.51
80134;SHT30;69443;51.442;10.564;2023-05-02T07:06:04;14.45;57.41
80134;SHT30;69443;51.442;10.564;2023-05-02T07:08:29;14.46;57.30
80134;SHT30;69443;51.442;10.564;2023-05-02T07:10:55;14.51;57.21
80134;SHT30;69443;51.442;10.564;2023-05-02T07:13:20;14.52;57.12
80134;SHT30;69443;51.442;10.564;2023-05-02T07:15:45;14.55;57.14
80134;SHT30;69443;51.442;10.564;2023-05-02T07:18:11;14.58;57.02
80134;SHT30;69443;51.442;10.564;2023-05-02T07:20:36;14.64;56.98
80134;SHT30;69443;51.442;10.564;2023-05-02T07:23:03;14.64;57.08
80134;SHT30;69443;51.442;10.564;2023-05-02T07:25:28;14.68;56.91
80134;SHT30;69443;51.442;10.564;2023-05-02T07:27:53;14.71;56.91
80134;SHT30;69443;51.442;10.564;2023-05-02T07:30:19;14.73;56.84
80134;SHT30;69443;51.442;10.564;2023-05-02T07:32:44;14.76;56.73
80134;SHT30;69443;51.442;10.564;2023-05-02T07:35:09;14.79;56.75
80134;SHT30;69443;51.442;10.564;2023-05-02T07:37:35;14.80;56.72
80134;SHT30;69443;51.442;10.564;2023-05-02T07:40:02;14.85;56.72
80134;SHT30;69443;51.442;10.564;2023-05-02T07:42:30;14.86;56.70
80134;SHT30;69443;51.442;10.564;2023-05-02T07:44:57;14.88;56.65
80134;SHT30;69443;51.442;10.564;2023-05-02T07:47:22;14.92;56.65
80134;SHT30;69443;51.442;10.564;2023-05-02T07:49:54;14.97;56.67
80134;SHT30;69443;51.442;10.564;2023-05-02T07:52:20;15.03;56.42
80134;SHT30;69443;51.442;10.564;2023-05-02T07:54:50;15.07;56.46
80134;SHT30;69443;51.442;10.564;2023-05-02T07:57:16;15.11;56.32
80134;SHT30;69443;51.442;10.564;2023-05-02T07:59:41;15.17;56.22
80134;SHT30;69443;51.442;10.564;2023-05-02T08:02:07;15.22;56.17
80134;SHT30;69443;51.442;10.564;2023-05-02T08:04:33;15.27;56.20
80134;SHT30;69443;51.442;10.564;2023-05-02T08:06:58;15.30;56.16
80134;SHT30;69443;51.442;10.564;2023-05-02T08:09:25;15.31;56.17
80134;SHT30;69443;51.442;10.564;2023-05-02T08:11:50;15.37;56.03
80134;SHT30;69443;51.442;10.564;2023-05-02T08:14:15;15.40;56.00
80134;SHT30;69443;51.442;10.564;2023-05-02T08:16:41;15.44;56.01
80134;SHT30;69443;51.442;10.564;2023-05-02T08:19:07;15.47;55.99
80134;SHT30;69443;51.442;10.564;2023-05-02T08:21:32;15.52;56.39
80134;SHT30;69443;51.442;10.564;2023-05-02T08:23:58;15.58;55.89
80134;SHT30;69443;51.442;10.564;2023-05-02T08:26:24;15.62;55.69
80134;SHT30;69443;51.442;10.564;2023-05-02T08:28:50;15.68;55.65
80134;SHT30;69443;51.442;10.564;2023-05-02T08:31:16;15.72;55.58
80134;SHT30;69443;51.442;10.564;2023-05-02T08:33:42;15.75;55.56
80134;SHT30;69443;51.442;10.564;2023-05-02T08:36:15;15.78;55.56
80134;SHT30;69443;51.442;10.564;2023-05-02T08:38:41;15.82;55.40
80134;SHT30;69443;51.442;10.564;2023-05-02T08:43:37;15.85;55.52
80134;SHT30;69443;51.442;10.564;2023-05-02T08:46:04;15.85;55.53
80134;SHT30;69443;51.442;10.564;2023-05-02T08:48:32;15.87;55.45
80134;SHT30;69443;51.442;10.564;2023-05-02T08:51:01;15.87;55.45
80134;SHT30;69443;51.442;10.564;2023-05-02T08:53:29;15.87;55.39
80134;SHT30;69443;51.442;10.564;2023-05-02T08:55:56;15.89;55.42
80134;SHT30;69443;51.442;10.564;2023-05-02T08:58:22;15.87;55.49
80134;SHT30;69443;51.442;10.564;2023-05-02T09:00:48;15.83;55.56
80134;SHT30;69443;51.442;10.564;2023-05-02T09:03:30;15.79;55.99
80134;SHT30;69443;51.442;10.564;2023-05-02T09:08:27;15.73;55.88
80134;SHT30;69443;51.442;10.564;2023-05-02T09:10:53;15.72;56.05
80134;SHT30;69443;51.442;10.564;2023-05-02T09:16:08;15.63;56.35
80134;SHT30;69443;51.442;10.564;2023-05-02T09:18:45;15.62;56.75
80134;SHT30;69443;51.442;10.564;2023-05-02T09:21:13;15.61;56.68
80134;SHT30;69443;51.442;10.564;2023-05-02T09:23:43;15.58;56.75
80134;SHT30;69443;51.442;10.564;2023-05-02T09:28:40;15.58;56.66
80134;SHT30;69443;51.442;10.564;2023-05-02T09:31:07;15.55;56.75
80134;SHT30;69443;51.442;10.564;2023-05-02T09:33:34;15.52;56.80
80134;SHT30;69443;51.442;10.564;2023-05-02T09:35:59;15.51;56.86
80134;SHT30;69443;51.442;10.564;2023-05-02T09:38:25;15.48;57.14
80134;SHT30;69443;51.442;10.564;2023-05-02T09:40:53;15.48;57.78
80134;SHT30;69443;51.442;10.564;2023-05-02T09:43:22;15.42;57.61
80134;SHT30;69443;51.442;10.564;2023-05-02T09:46:07;15.42;58.05
80134;SHT30;69443;51.442;10.564;2023-05-02T09:51:16;15.42;58.56
80134;SHT30;69443;51.442;10.564;2023-05-02T09:53:43;15.41;57.90
80134;SHT30;69443;51.442;10.564;2023-05-02T09:56:09;15.41;57.66
80134;SHT30;69443;51.442;10.564;2023-05-02T09:58:34;15.38;57.56
80134;SHT30;69443;51.442;10.564;2023-05-02T10:01:00;15.38;57.76
80134;SHT30;69443;51.442;10.564;2023-05-02T10:03:26;15.38;57.66
80134;SHT30;69443;51.442;10.564;2023-05-02T10:05:52;15.38;57.83
80134;SHT30;69443;51.442;10.564;2023-05-02T10:08:20;15.35;57.92
80134;SHT30;69443;51.442;10.564;2023-05-02T10:10:56;15.35;58.21
80134;SHT30;69443;51.442;10.564;2023-05-02T10:13:24;15.35;58.62
80134;SHT30;69443;51.442;10.564;2023-05-02T10:16:02;15.40;59.03
80134;SHT30;69443;51.442;10.564;2023-05-02T10:21:00;15.41;58.90
80134;SHT30;69443;51.442;10.564;2023-05-02T10:23:28;15.42;58.26
80134;SHT30;69443;51.442;10.564;2023-05-02T10:25:56;15.51;58.13
80134;SHT30;69443;51.442;10.564;2023-05-02T10:28:21;15.55;57.68
80134;SHT30;69443;51.442;10.564;2023-05-02T10:30:51;15.65;57.36
80134;SHT30;69443;51.442;10.564;2023-05-02T10:33:41;15.70;57.25
80134;SHT30;69443;51.442;10.564;2023-05-02T10:36:12;15.79;56.94
80134;SHT30;69443;51.442;10.564;2023-05-02T10:38:39;15.85;56.75
80134;SHT30;69443;51.442;10.564;2023-05-02T10:41:12;15.90;56.62
80134;SHT30;69443;51.442;10.564;2023-05-02T10:43:40;15.99;56.51
80134;SHT30;69443;51.442;10.564;2023-05-02T10:49:04;16.07;56.23
80134;SHT30;69443;51.442;10.564;2023-05-02T10:51:34;16.09;56.15
80134;SHT30;69443;51.442;10.564;2023-05-02T10:54:19;16.14;56.24
80134;SHT30;69443;51.442;10.564;2023-05-02T10:57:05;16.17;56.10
80134;SHT30;69443;51.442;10.564;2023-05-02T10:59:42;16.21;56.14
80134;SHT30;69443;51.442;10.564;2023-05-02T11:05:00;16.28;56.21
80134;SHT30;69443;51.442;10.564;2023-05-02T11:07:27;16.28;56.02
80134;SHT30;69443;51.442;10.564;2023-05-02T11:09:52;16.30;55.80
80134;SHT30;69443;51.442;10.564;2023-05-02T11:12:43;16.32;55.88
80134;SHT30;69443;51.442;10.564;2023-05-02T11:18:09;16.40;55.64
80134;SHT30;69443;51.442;10.564;2023-05-02T11:20:40;16.41;55.69
80134;SHT30;69443;51.442;10.564;2023-05-02T11:25:44;16.42;55.58
80134;SHT30;69443;51.442;10.564;2023-05-02T11:30:58;16.44;55.55
80134;SHT30;69443;51.442;10.564;2023-05-02T11:33:24;16.44;55.59
80134;SHT30;69443;51.442;10.564;2023-05-02T11:35:49;16.45;55.64
80134;SHT30;69443;51.442;10.564;2023-05-02T11:38:16;16.47;55.69
80134;SHT30;69443;51.442;10.564;2023-05-02T11:40:55;16.49;55.60
80134;SHT30;69443;51.442;10.564;2023-05-02T11:43:21;16.54;55.53
80134;SHT30;69443;51.442;10.564;2023-05-02T11:45:47;16.61;55.42
80134;SHT30;69443;51.442;10.564;2023-05-02T11:48:15;16.68;55.25
80134;SHT30;69443;51.442;10.564;2023-05-02T11:50:46;16.73;55.13
80134;SHT30;69443;51.442;10.564;2023-05-02T11:53:15;16.80;55.01
80134;SHT30;69443;51.442;10.564;2023-05-02T11:55:54;16.87;54.89
80134;SHT30;69443;51.442;10.564;2023-05-02T11:58:21;16.96;54.77
80134;SHT30;69443;51.442;10.564;2023-05-02T12:00:48;16.99;54.63
80134;SHT30;69443;51.442;10.564;2023-05-02T12:03:30;17.06;54.56
80134;SHT30;69443;51.442;10.564;2023-05-02T12:05:57;17.11;54.41
80134;SHT30;69443;51.442;10.564;2023-05-02T12:08:27;17.17;54.27
80134;SHT30;69443;51.442;10.564;2023-05-02T12:10:54;17.26;54.27
80134;SHT30;69443;51.442;10.564;2023-05-02T12:13:22;17.31;54.23
80134;SHT30;69443;51.442;10.564;2023-05-02T12:15:49;17.34;54.06
80134;SHT30;69443;51.442;10.564;2023-05-02T12:18:16;17.37;54.03
80134;SHT30;69443;51.442;10.564;2023-05-02T12:20:42;17.38;54.03
80134;SHT30;69443;51.442;10.564;2023-05-02T12:23:10;17.41;54.03
80134;SHT30;69443;51.442;10.564;2023-05-02T12:25:40;17.44;53.93
80134;SHT30;69443;51.442;10.564;2023-05-02T12:28:06;17.44;53.94
80134;SHT30;69443;51.442;10.564;2023-05-02T12:30:32;17.45;53.86
80134;SHT30;69443;51.442;10.564;2023-05-02T12:32:59;17.48;53.75
80134;SHT30;69443;51.442;10.564;2023-05-02T12:35:26;17.51;53.83
80134;SHT30;69443;51.442;10.564;2023-05-02T12:37:52;17.55;53.65
80134;SHT30;69443;51.442;10.564;2023-05-02T12:40:21;17.65;53.59
80134;SHT30;69443;51.442;10.564;2023-05-02T12:43:03;17.73;53.39
80134;SHT30;69443;51.442;10.564;2023-05-02T12:45:30;17.82;53.45
80134;SHT30;69443;51.442;10.564;2023-05-02T12:47:59;17.89;53.32
80134;SHT30;69443;51.442;10.564;2023-05-02T12:50:37;17.97;52.84
80134;SHT30;69443;51.442;10.564;2023-05-02T12:53:03;18.00;52.95
80134;SHT30;69443;51.442;10.564;2023-05-02T12:55:28;18.07;52.89
80134;SHT30;69443;51.442;10.564;2023-05-02T12:58:07;18.08;52.89
80134;SHT30;69443;51.442;10.564;2023-05-02T13:00:36;18.10;52.80
80134;SHT30;69443;51.442;10.564;2023-05-02T13:03:02;18.14;52.69
80134;SHT30;69443;51.442;10.564;2023-05-02T13:05:28;18.15;52.65
80134;SHT30;69443;51.442;10.564;2023-05-02T13:07:53;18.17;52.67
80134;SHT30;69443;51.442;10.564;2023-05-02T13:10:21;18.23;52.41
80134;SHT30;69443;51.442;10.564;2023-05-02T13:12:47;18.28;52.55
80134;SHT30;69443;51.442;10.564;2023-05-02T13:15:13;18.28;52.26
80134;SHT30;69443;51.442;10.564;2023-05-02T13:17:38;18.32;52.40
80134;SHT30;69443;51.442;10.564;2023-05-02T13:20:04;18.31;51.94
80134;SHT30;69443;51.442;10.564;2023-05-02T13:22:30;18.31;52.21
80134;SHT30;69443;51.442;10.564;2023-05-02T13:24:56;18.30;52.38
80134;SHT30;69443;51.442;10.564;2023-05-02T13:27:22;18.27;52.51
80134;SHT30;69443;51.442;10.564;2023-05-02T13:29:48;18.21;51.44
80134;SHT30;69443;51.442;10.564;2023-05-02T13:32:14;18.21;51.90
80134;SHT30;69443;51.442;10.564;2023-05-02T13:34:39;18.21;52.11
80134;SHT30;69443;51.442;10.564;2023-05-02T13:37:04;18.20;51.86
80134;SHT30;69443;51.442;10.564;2023-05-02T13:39:30;18.15;51.72
80134;SHT30;69443;51.442;10.564;2023-05-02T13:41:55;18.14;51.98
80134;SHT30;69443;51.442;10.564;2023-05-02T13:44:21;18.11;51.66
80134;SHT30;69443;51.442;10.564;2023-05-02T13:46:46;18.11;52.02
80134;SHT30;69443;51.442;10.564;2023-05-02T13:49:12;18.07;52.16
80134;SHT30;69443;51.442;10.564;2023-05-02T13:51:38;18.04;52.25
80134;SHT30;69443;51.442;10.564;2023-05-02T13:54:03;17.98;52.18
80134;SHT30;69443;51.442;10.564;2023-05-02T13:56:29;17.94;52.25
80134;SHT30;69443;51.442;10.564;2023-05-02T13:58:54;17.93;52.23
80134;SHT30;69443;51.442;10.564;2023-05-02T14:01:20;17.87;51.87
80134;SHT30;69443;51.442;10.564;2023-05-02T14:03:45;17.83;52.25
80134;SHT30;69443;51.442;10.564;2023-05-02T14:06:10;17.82;52.31
80134;SHT30;69443;51.442;10.564;2023-05-02T14:08:36;17.79;52.43
80134;SHT30;69443;51.442;10.564;2023-05-02T14:11:01;17.76;52.42
80134;SHT30;69443;51.442;10.564;2023-05-02T14:13:27;17.73;52.41
80134;SHT30;69443;51.442;10.564;2023-05-02T14:15:52;17.71;52.66
80134;SHT30;69443;51.442;10.564;2023-05-02T14:18:18;17.69;52.65
80134;SHT30;69443;51.442;10.564;2023-05-02T14:20:44;17.66;52.81
80134;SHT30;69443;51.442;10.564;2023-05-02T14:23:09;17.58;52.13
80134;SHT30;69443;51.442;10.564;2023-05-02T14:25:35;17.55;52.71
80134;SHT30;69443;51.442;10.564;2023-05-02T14:28:01;17.52;52.73
80134;SHT30;69443;51.442;10.564;2023-05-02T14:30:27;17.48;52.67
80134;SHT30;69443;51.442;10.564;2023-05-02T14:32:53;17.44;52.60
80134;SHT30;69443;51.442;10.564;2023-05-02T14:35:18;17.41;52.90
80134;SHT30;69443;51.442;10.564;2023-05-02T14:37:44;17.37;52.94
80134;SHT30;69443;51.442;10.564;2023-05-02T14:40:10;17.37;52.94
80134;SHT30;69443;51.442;10.564;2023-05-02T14:42:36;17.32;53.14
80134;SHT30;69443;51.442;10.564;2023-05-02T14:45:01;17.31;52.79
80134;SHT30;69443;51.442;10.564;2023-05-02T14:47:27;17.31;53.06
80134;SHT30;69443;51.442;10.564;2023-05-02T14:49:55;17.28;53.13
80134;SHT30;69443;51.442;10.564;2023-05-02T14:52:20;17.27;53.12
80134;SHT30;69443;51.442;10.564;2023-05-02T14:54:46;17.23;52.89
80134;SHT30;69443;51.442;10.564;2023-05-02T14:57:11;17.23;52.96
80134;SHT30;69443;51.442;10.564;2023-05-02T14:59:36;17.18;53.12
80134;SHT30;69443;51.442;10.564;2023-05-02T15:02:03;17.17;53.35
80134;SHT30;69443;51.442;10.564;2023-05-02T15:04:29;17.14;53.21
80134;SHT30;69443;51.442;10.564;2023-05-02T15:06:55;17.11;53.30
80134;SHT30;69443;51.442;10.564;2023-05-02T15:09:22;17.09;53.15
80134;SHT30;69443;51.442;10.564;2023-05-02T15:11:52;17.04;53.17
80134;SHT30;69443;51.442;10.564;2023-05-02T15:14:18;17.00;53.31
80134;SHT30;69443;51.442;10.564;2023-05-02T15:16:43;16.99;53.25
80134;SHT30;69443;51.442;10.564;2023-05-02T15:19:09;16.97;53.31
80134;SHT30;69443;51.442;10.564;2023-05-02T15:21:34;16.94;53.33
80134;SHT30;69443;51.442;10.564;2023-05-02T15:24:00;16.90;53.23
80134;SHT30;69443;51.442;10.564;2023-05-02T15:26:26;16.87;52.98
80134;SHT30;69443;51.442;10.564;2023-05-02T15:28:53;16.83;52.94
80134;SHT30;69443;51.442;10.564;2023-05-02T15:31:18;16.79;53.10
80134;SHT30;69443;51.442;10.564;2023-05-02T15:33:43;16.75;52.79
80134;SHT30;69443;51.442;10.564;2023-05-02T15:36:09;16.71;52.52
80134;SHT30;69443;51.442;10.564;2023-05-02T15:38:34;16.66;52.70
80134;SHT30;69443;51.442;10.564;2023-05-02T15:41:04;16.64;52.63
80134;SHT30;69443;51.442;10.564;2023-05-02T15:43:29;16.58;52.38
80134;SHT30;69443;51.442;10.564;2023-05-02T15:45:57;16.52;52.40
80134;SHT30;69443;51.442;10.564;2023-05-02T15:48:26;16.47;52.48
80134;SHT30;69443;51.442;10.564;2023-05-02T15:50:52;16.42;52.64
80134;SHT30;69443;51.442;10.564;2023-05-02T15:53:18;16.37;52.63
80134;SHT30;69443;51.442;10.564;2023-05-02T15:55:46;16.31;52.73
80134;SHT30;69443;51.442;10.564;2023-05-02T15:58:12;16.24;52.75
80134;SHT30;69443;51.442;10.564;2023-05-02T16:00:37;16.22;52.47
80134;SHT30;69443;51.442;10.564;2023-05-02T16:03:03;16.18;52.33
80134;SHT30;69443;51.442;10.564;2023-05-02T16:05:29;16.14;52.49